Check out our new BloomSky Weather System.

Active alerts

Houston, TX
  Details for Houston, TX River Flood Warning  +1 additional alert
Fort Bend, TX
  Details for Fort Bend, TX River Flood Warning  +1 additional alert


Thunder radar  blitzortung!


Rain radar more information rain snow radar


Visit our other weather sites:

Template documentation
and downloads

And another site



Weather Underground History page Text

Daily Summary for February 5, 2018 Units:  English    Metric   Both
« Previous Day
Next Day »
Daily Weekly Monthly Yearly Custom
  High: Low: Average:
Temperature: TemperatureF °F 49.3 °F 55.9 °F
Dew Point: DewpointF °F 46.4 °F 52.6 °F
Humidity: Humidity % 78 % 89 %
Wind Speed: WindSpeedMPH mph 0.0 mph 1.7 mph
Wind Gust: WindSpeedGustMPH mph - -
Wind:- - SSE
Pressure: PressureIn in 30.04 in -
Precipitation: 0.00 in    
Historical Graphs
 
 
Tabular Data for February 5, 2018
Time Temperature Dew Point Pressure Wind Wind Speed Wind Gust Humidity Rainfall Rate (Hourly)
TemperatureF °F DewpointF °F PressureIn in Calm     Humidity % HourlyPrecipIn in
00:00 54.9 °F 54.0 °F 30.13 in NNW 1.0 mph 2.0 mph 97 % 0.00 in
00:05 54.9 °F 54.0 °F 30.13 in Calm   2.0 mph 97 % 0.00 in
00:10 55.0 °F 54.1 °F 30.13 in NNE 1.0 mph 3.0 mph 97 % 0.00 in
00:15 55.0 °F 54.1 °F 30.13 in Calm   3.0 mph 97 % 0.00 in
00:20 55.0 °F 54.1 °F 30.13 in NW 1.0 mph 3.0 mph 97 % 0.00 in
00:25 55.2 °F 54.3 °F 30.13 in North 3.0 mph 3.0 mph 97 % 0.00 in
00:30 55.2 °F 54.3 °F 30.13 in Calm   3.0 mph 97 % 0.00 in
00:35 55.2 °F 54.3 °F 30.13 in NNW 1.0 mph 3.0 mph 97 % 0.00 in
00:40 55.2 °F 54.3 °F 30.13 in NNW 1.0 mph 3.0 mph 97 % 0.00 in
00:45 55.4 °F 54.5 °F 30.13 in NNW 1.0 mph 3.0 mph 97 % 0.00 in
00:50 55.4 °F 54.5 °F 30.13 in Calm   5.0 mph 97 % 0.00 in
00:55 55.6 °F 54.7 °F 30.13 in Calm   6.0 mph 97 % 0.00 in
01:00 55.6 °F 54.7 °F 30.13 in Calm   6.0 mph 97 % 0.00 in
01:05 55.6 °F 54.7 °F 30.13 in Calm   6.0 mph 97 % 0.00 in
01:10 55.8 °F 54.7 °F 30.13 in Calm   6.0 mph 96 % 0.00 in
01:15 55.8 °F 54.7 °F 30.13 in Calm   5.0 mph 96 % 0.00 in
01:20 55.8 °F 54.7 °F 30.13 in Calm   5.0 mph 96 % 0.00 in
01:25 55.8 °F 54.7 °F 30.13 in North 5.0 mph 5.0 mph 96 % 0.00 in
01:30 55.8 °F 54.3 °F 30.13 in NW 2.0 mph 8.0 mph 95 % 0.00 in
01:35 55.8 °F 54.3 °F 30.13 in North 3.0 mph 8.0 mph 95 % 0.00 in
01:40 55.8 °F 54.3 °F 30.13 in Calm   8.0 mph 95 % 0.00 in
01:45 55.8 °F 54.1 °F 30.13 in North 1.0 mph 6.0 mph 94 % 0.00 in
01:50 55.8 °F 54.1 °F 30.13 in NNE 1.0 mph 6.0 mph 94 % 0.00 in
01:55 55.8 °F 54.1 °F 30.12 in NE 1.0 mph 7.0 mph 94 % 0.00 in
02:00 55.6 °F 54.0 °F 30.12 in Calm   7.0 mph 94 % 0.00 in
02:05 55.6 °F 54.0 °F 30.12 in Calm   7.0 mph 94 % 0.00 in
02:10 55.6 °F 54.0 °F 30.12 in Calm   6.0 mph 94 % 0.00 in
02:15 55.4 °F 53.8 °F 30.12 in North 2.0 mph 6.0 mph 94 % 0.00 in
02:20 55.2 °F 53.6 °F 30.12 in NNW 2.0 mph 6.0 mph 94 % 0.00 in
02:25 55.2 °F 53.6 °F 30.12 in ENE 1.0 mph 6.0 mph 94 % 0.00 in
02:30 55.2 °F 53.6 °F 30.12 in NNW 3.0 mph 6.0 mph 94 % 0.00 in
02:35 55.0 °F 53.4 °F 30.12 in NW 2.0 mph 6.0 mph 94 % 0.00 in
02:40 54.9 °F 53.2 °F 30.12 in NNW 3.0 mph 8.0 mph 94 % 0.00 in
02:45 54.7 °F 53.1 °F 30.12 in North 5.0 mph 8.0 mph 94 % 0.00 in
02:51 54.3 °F 52.9 °F 30.12 in Calm   8.0 mph 95 % 0.00 in
02:56 54.1 °F 52.7 °F 30.12 in NW 5.0 mph 8.0 mph 95 % 0.00 in
03:01 54.0 °F 52.5 °F 30.12 in North 4.0 mph 8.0 mph 95 % 0.00 in
03:06 53.8 °F 52.3 °F 30.12 in Calm   8.0 mph 95 % 0.00 in
03:11 53.8 °F 52.3 °F 30.12 in ENE 1.0 mph 8.0 mph 95 % 0.00 in
03:16 53.6 °F 52.2 °F 30.13 in ENE 2.0 mph 8.0 mph 95 % 0.00 in
03:21 53.4 °F 52.0 °F 30.12 in Calm   8.0 mph 95 % 0.00 in
03:26 53.2 °F 51.8 °F 30.12 in NNE 5.0 mph 8.0 mph 95 % 0.00 in
03:31 53.1 °F 51.6 °F 30.12 in ESE 2.0 mph 8.0 mph 95 % 0.00 in
03:36 53.1 °F 51.6 °F 30.12 in North 1.0 mph 7.0 mph 95 % 0.00 in
03:41 52.7 °F 51.1 °F 30.12 in WNW 1.0 mph 7.0 mph 94 % 0.00 in
03:46 52.5 °F 50.9 °F 30.12 in NW 1.0 mph 8.0 mph 94 % 0.00 in
03:51 52.3 °F 50.4 °F 30.12 in Calm   9.0 mph 93 % 0.00 in
03:56 52.2 °F 50.2 °F 30.12 in Calm   9.0 mph 93 % 0.00 in
04:01 52.0 °F 50.0 °F 30.12 in North 3.0 mph 9.0 mph 93 % 0.00 in
04:06 51.8 °F 49.6 °F 30.12 in Calm   7.0 mph 92 % 0.00 in
04:11 51.6 °F 49.1 °F 30.12 in NNW 2.0 mph 8.0 mph 91 % 0.00 in
04:16 51.4 °F 48.9 °F 30.12 in NNW 3.0 mph 8.0 mph 91 % 0.00 in
04:21 51.4 °F 48.9 °F 30.12 in NNE 2.0 mph 8.0 mph 91 % 0.00 in
04:26 51.3 °F 48.7 °F 30.12 in NNW 4.0 mph 8.0 mph 91 % 0.00 in
04:31 51.3 °F 48.7 °F 30.12 in NE 3.0 mph 6.0 mph 91 % 0.00 in
04:36 51.1 °F 48.6 °F 30.12 in Calm   6.0 mph 91 % 0.00 in
04:41 50.9 °F 48.4 °F 30.12 in North 1.0 mph 6.0 mph 91 % 0.00 in
04:46 50.9 °F 48.4 °F 30.12 in Calm   6.0 mph 91 % 0.00 in
04:51 50.7 °F 48.2 °F 30.12 in NNE 2.0 mph 5.0 mph 91 % 0.00 in
04:56 50.7 °F 48.2 °F 30.12 in NNW 3.0 mph 5.0 mph 91 % 0.00 in
05:01 50.5 °F 48.0 °F 30.13 in NNW 1.0 mph 5.0 mph 91 % 0.00 in
05:06 50.5 °F 48.0 °F 30.13 in NW 1.0 mph 5.0 mph 91 % 0.00 in
05:11 50.5 °F 48.0 °F 30.13 in WNW 1.0 mph 7.0 mph 91 % 0.00 in
05:16 50.4 °F 47.8 °F 30.13 in NW 1.0 mph 7.0 mph 91 % 0.00 in
05:21 50.4 °F 47.8 °F 30.14 in Calm   7.0 mph 91 % 0.00 in
05:26 50.2 °F 47.3 °F 30.14 in NW 2.0 mph 6.0 mph 90 % 0.00 in
05:31 50.2 °F 47.3 °F 30.14 in NW 4.0 mph 6.0 mph 90 % 0.00 in
05:36 50.0 °F 47.1 °F 30.14 in Calm   8.0 mph 90 % 0.00 in
05:41 49.8 °F 46.9 °F 30.14 in NNW 1.0 mph 8.0 mph 90 % 0.00 in
05:46 49.8 °F 46.9 °F 30.14 in NNW 2.0 mph 8.0 mph 90 % 0.00 in
05:51 49.8 °F 46.9 °F 30.14 in NNW 2.0 mph 6.0 mph 90 % 0.00 in
05:56 49.6 °F 46.8 °F 30.15 in NNW 1.0 mph 7.0 mph 90 % 0.00 in
06:01 49.6 °F 46.8 °F 30.15 in NNW 5.0 mph 7.0 mph 90 % 0.00 in
06:06 49.6 °F 46.8 °F 30.15 in North 3.0 mph 7.0 mph 90 % 0.00 in
06:11 49.6 °F 47.1 °F 30.16 in Calm   6.0 mph 91 % 0.00 in
06:16 49.5 °F 46.6 °F 30.16 in North 2.0 mph 6.0 mph 90 % 0.00 in
06:21 49.5 °F 46.6 °F 30.16 in NE 5.0 mph 5.0 mph 90 % 0.00 in
06:26 49.5 °F 46.6 °F 30.16 in North 1.0 mph 7.0 mph 90 % 0.00 in
06:31 49.5 °F 46.6 °F 30.16 in Calm   7.0 mph 90 % 0.00 in
06:36 49.5 °F 46.6 °F 30.16 in NW 1.0 mph 7.0 mph 90 % 0.00 in
06:41 49.5 °F 46.6 °F 30.17 in NW 1.0 mph 5.0 mph 90 % 0.00 in
06:46 49.3 °F 46.4 °F 30.17 in Calm   6.0 mph 90 % 0.00 in
06:51 49.3 °F 46.4 °F 30.16 in Calm   6.0 mph 90 % 0.00 in
06:56 49.5 °F 46.6 °F 30.16 in NNE 2.0 mph 6.0 mph 90 % 0.00 in
07:01 49.3 °F 46.4 °F 30.16 in NNW 3.0 mph 4.0 mph 90 % 0.00 in
07:06 49.3 °F 46.4 °F 30.17 in NW 1.0 mph 4.0 mph 90 % 0.00 in
07:11 49.3 °F 46.8 °F 30.17 in NNW 1.0 mph 4.0 mph 91 % 0.00 in
07:16 49.3 °F 46.8 °F 30.17 in NNW 1.0 mph 4.0 mph 91 % 0.00 in
07:21 49.3 °F 46.8 °F 30.17 in Calm   5.0 mph 91 % 0.00 in
07:26 49.3 °F 46.8 °F 30.17 in NNW 2.0 mph 5.0 mph 91 % 0.00 in
07:31 49.5 °F 46.9 °F 30.17 in NE 2.0 mph 6.0 mph 91 % 0.00 in
07:36 49.5 °F 46.9 °F 30.17 in NW 4.0 mph 6.0 mph 91 % 0.00 in
07:41 49.5 °F 46.9 °F 30.17 in Calm   6.0 mph 91 % 0.00 in
07:46 49.5 °F 46.9 °F 30.17 in NNE 1.0 mph 5.0 mph 91 % 0.00 in
07:51 49.6 °F 47.1 °F 30.18 in NNW 2.0 mph 5.0 mph 91 % 0.00 in
07:56 49.6 °F 47.1 °F 30.18 in Calm   4.0 mph 91 % 0.00 in
08:01 49.6 °F 47.1 °F 30.18 in Calm   4.0 mph 91 % 0.00 in
08:06 49.6 °F 47.1 °F 30.17 in NW 1.0 mph 4.0 mph 91 % 0.00 in
08:11 49.8 °F 47.3 °F 30.17 in NW 2.0 mph 4.0 mph 91 % 0.00 in
08:16 49.8 °F 47.3 °F 30.17 in NE 1.0 mph 7.0 mph 91 % 0.00 in
08:21 49.8 °F 47.3 °F 30.18 in NW 2.0 mph 8.0 mph 91 % 0.00 in
08:26 49.8 °F 47.3 °F 30.18 in ENE 1.0 mph 8.0 mph 91 % 0.00 in
08:31 50.0 °F 47.8 °F 30.18 in NE 2.0 mph 8.0 mph 92 % 0.00 in
08:36 50.2 °F 48.0 °F 30.18 in Calm   5.0 mph 92 % 0.00 in
08:41 50.4 °F 47.8 °F 30.18 in NNE 1.0 mph 5.0 mph 91 % 0.00 in
08:46 50.5 °F 48.0 °F 30.18 in NW 1.0 mph 5.0 mph 91 % 0.00 in
08:51 50.7 °F 48.2 °F 30.18 in Calm   4.0 mph 91 % 0.00 in
08:56 50.9 °F 48.4 °F 30.18 in North 1.0 mph 4.0 mph 91 % 0.00 in
09:01 51.4 °F 48.9 °F 30.18 in Calm   4.0 mph 91 % 0.00 in
09:06 52.0 °F 49.5 °F 30.18 in Calm   4.0 mph 91 % 0.00 in
09:11 52.5 °F 49.5 °F 30.18 in Calm   4.0 mph 89 % 0.00 in
09:16 53.2 °F 50.0 °F 30.18 in NNE 2.0 mph 5.0 mph 89 % 0.00 in
09:21 53.4 °F 49.6 °F 30.18 in NNE 3.0 mph 7.0 mph 87 % 0.00 in
09:26 53.6 °F 49.8 °F 30.18 in Calm   7.0 mph 87 % 0.00 in
09:31 54.0 °F 50.2 °F 30.18 in NNE 4.0 mph 7.0 mph 87 % 0.00 in
09:36 54.1 °F 50.0 °F 30.18 in NW 1.0 mph 6.0 mph 86 % 0.00 in
09:41 54.1 °F 50.0 °F 30.17 in NE 1.0 mph 5.0 mph 86 % 0.00 in
09:46 54.3 °F 50.2 °F 30.17 in ESE 3.0 mph 4.0 mph 86 % 0.00 in
09:51 54.7 °F 50.5 °F 30.17 in Calm   5.0 mph 86 % 0.00 in
09:56 55.2 °F 50.7 °F 30.17 in Calm   5.0 mph 85 % 0.00 in
10:01 55.6 °F 50.9 °F 30.17 in East 1.0 mph 5.0 mph 84 % 0.00 in
10:06 55.6 °F 50.5 °F 30.17 in NNW 1.0 mph 6.0 mph 83 % 0.00 in
10:11 55.8 °F 50.7 °F 30.17 in ENE 1.0 mph 6.0 mph 83 % 0.00 in
10:16 56.5 °F 51.6 °F 30.17 in ENE 1.0 mph 6.0 mph 84 % 0.00 in
10:21 56.8 °F 51.1 °F 30.17 in East 5.0 mph 6.0 mph 81 % 0.00 in
10:26 57.4 °F 52.0 °F 30.17 in ESE 2.0 mph 7.0 mph 82 % 0.00 in
10:31 57.7 °F 51.3 °F 30.17 in SE 2.0 mph 7.0 mph 79 % 0.00 in
10:36 57.6 °F 50.7 °F 30.16 in East 2.0 mph 7.0 mph 78 % 0.00 in
10:41 57.6 °F 51.4 °F 30.16 in Calm   10.0 mph 80 % 0.00 in
10:46 57.7 °F 51.3 °F 30.16 in SSE 2.0 mph 10.0 mph 79 % 0.00 in
10:51 57.7 °F 51.3 °F 30.16 in SSE 5.0 mph 10.0 mph 79 % 0.00 in
10:56 57.9 °F 51.4 °F 30.16 in Calm   7.0 mph 79 % 0.00 in
11:01 57.9 °F 51.4 °F 30.16 in ESE 8.0 mph 8.0 mph 79 % 0.00 in
11:06 57.9 °F 51.4 °F 30.16 in East 1.0 mph 9.0 mph 79 % 0.00 in
11:11 58.3 °F 51.8 °F 30.15 in SE 2.0 mph 9.0 mph 79 % 0.00 in
11:16 58.5 °F 52.0 °F 30.15 in SE 2.0 mph 9.0 mph 79 % 0.00 in
11:21 58.8 °F 52.0 °F 30.14 in SE 3.0 mph 8.0 mph 78 % 0.00 in
11:26 58.8 °F 52.0 °F 30.14 in East 5.0 mph 12.0 mph 78 % 0.00 in
11:31 58.8 °F 52.3 °F 30.14 in SE 2.0 mph 12.0 mph 79 % 0.00 in
11:36 58.8 °F 52.0 °F 30.14 in ESE 2.0 mph 12.0 mph 78 % 0.00 in
11:41 58.8 °F 52.0 °F 30.14 in East 2.0 mph 9.0 mph 78 % 0.00 in
11:46 58.8 °F 52.3 °F 30.14 in SE 8.0 mph 9.0 mph 79 % 0.00 in
11:51 58.8 °F 52.3 °F 30.14 in ESE 3.0 mph 11.0 mph 79 % 0.00 in
11:56 58.8 °F 52.7 °F 30.13 in ESE 7.0 mph 11.0 mph 80 % 0.00 in
12:01 58.8 °F 52.3 °F 30.13 in SE 6.0 mph 11.0 mph 79 % 0.00 in
12:06 58.8 °F 52.7 °F 30.13 in East 6.0 mph 10.0 mph 80 % 0.00 in
12:11 58.6 °F 52.5 °F 30.13 in Calm   10.0 mph 80 % 0.00 in
12:16 58.8 °F 52.7 °F 30.12 in SSW 4.0 mph 10.0 mph 80 % 0.00 in
12:21 59.0 °F 52.5 °F 30.12 in ESE 3.0 mph 8.0 mph 79 % 0.00 in
12:26 59.2 °F 52.7 °F 30.12 in ESE 5.0 mph 8.0 mph 79 % 0.00 in
12:31 59.4 °F 52.9 °F 30.12 in SSE 4.0 mph 8.0 mph 79 % 0.00 in
12:36 59.5 °F 53.1 °F 30.11 in East 1.0 mph 8.0 mph 79 % 0.00 in
12:41 59.7 °F 53.2 °F 30.11 in SSE 2.0 mph 8.0 mph 79 % 0.00 in
12:46 59.9 °F 53.4 °F 30.11 in ENE 2.0 mph 8.0 mph 79 % 0.00 in
12:51 59.7 °F 53.2 °F 30.11 in Calm   7.0 mph 79 % 0.00 in
12:56 59.7 °F 53.2 °F 30.11 in ESE 2.0 mph 7.0 mph 79 % 0.00 in
13:01 59.9 °F 53.4 °F 30.10 in South 4.0 mph 7.0 mph 79 % 0.00 in
13:06 59.9 °F 53.8 °F 30.10 in Calm   6.0 mph 80 % 0.00 in
13:11 60.1 °F 53.6 °F 30.09 in SE 5.0 mph 6.0 mph 79 % 0.00 in
13:16 59.9 °F 53.4 °F 30.09 in South 2.0 mph 6.0 mph 79 % 0.00 in
13:21 59.7 °F 53.6 °F 30.09 in SE 2.0 mph 7.0 mph 80 % 0.00 in
13:26 59.9 °F 53.8 °F 30.08 in SE 3.0 mph 7.0 mph 80 % 0.00 in
13:31 59.9 °F 53.8 °F 30.08 in SE 2.0 mph 7.0 mph 80 % 0.00 in
13:36 60.1 °F 54.0 °F 30.08 in ESE 2.0 mph 7.0 mph 80 % 0.00 in
13:41 60.1 °F 54.0 °F 30.08 in ESE 5.0 mph 8.0 mph 80 % 0.00 in
13:46 60.3 °F 54.1 °F 30.08 in SSE 1.0 mph 8.0 mph 80 % 0.00 in
13:51 60.4 °F 54.3 °F 30.08 in ENE 3.0 mph 8.0 mph 80 % 0.00 in
13:57 60.4 °F 54.3 °F 30.08 in SE 4.0 mph 6.0 mph 80 % 0.00 in
14:02 60.6 °F 54.5 °F 30.08 in ESE 2.0 mph 7.0 mph 80 % 0.00 in
14:07 60.4 °F 54.0 °F 30.08 in ESE 3.0 mph 7.0 mph 79 % 0.00 in
14:12 60.4 °F 54.3 °F 30.08 in SE 4.0 mph 7.0 mph 80 % 0.00 in
14:17 60.3 °F 54.1 °F 30.07 in Calm   6.0 mph 80 % 0.00 in
14:22 60.3 °F 54.1 °F 30.07 in ESE 2.0 mph 6.0 mph 80 % 0.00 in
14:27 60.3 °F 54.1 °F 30.07 in Calm   6.0 mph 80 % 0.00 in
14:32 60.4 °F 54.3 °F 30.07 in SE 4.0 mph 5.0 mph 80 % 0.00 in
14:37 60.4 °F 54.3 °F 30.07 in East 5.0 mph 8.0 mph 80 % 0.00 in
14:42 60.3 °F 54.3 °F 30.06 in ESE 2.0 mph 8.0 mph 81 % 0.00 in
14:47 60.6 °F 54.5 °F 30.06 in Calm   8.0 mph 80 % 0.00 in
14:52 60.6 °F 54.5 °F 30.06 in SSE 5.0 mph 8.0 mph 80 % 0.00 in
14:57 60.6 °F 54.7 °F 30.06 in SSE 3.0 mph 7.0 mph 81 % 0.00 in
15:02 60.8 °F 54.9 °F 30.06 in SSE 3.0 mph 7.0 mph 81 % 0.00 in
15:07 60.8 °F 54.9 °F 30.07 in SE 1.0 mph 7.0 mph 81 % 0.00 in
15:12 60.8 °F 55.2 °F 30.07 in SE 3.0 mph 7.0 mph 82 % 0.00 in
15:17 60.6 °F 55.0 °F 30.07 in South 3.0 mph 7.0 mph 82 % 0.00 in
15:22 60.6 °F 55.0 °F 30.07 in Calm   7.0 mph 82 % 0.00 in
15:27 60.6 °F 54.7 °F 30.07 in ENE 1.0 mph 6.0 mph 81 % 0.00 in
15:32 60.4 °F 54.9 °F 30.06 in SE 1.0 mph 6.0 mph 82 % 0.00 in
15:37 60.6 °F 55.0 °F 30.07 in ENE 1.0 mph 6.0 mph 82 % 0.00 in
15:42 60.6 °F 55.0 °F 30.06 in SSE 2.0 mph 6.0 mph 82 % 0.00 in
15:47 60.6 °F 55.0 °F 30.06 in Calm   6.0 mph 82 % 0.00 in
15:52 60.6 °F 55.4 °F 30.06 in SSE 1.0 mph 6.0 mph 83 % 0.00 in
15:57 60.6 °F 55.4 °F 30.06 in ESE 2.0 mph 6.0 mph 83 % 0.00 in
16:02 60.6 °F 55.4 °F 30.06 in ESE 2.0 mph 7.0 mph 83 % 0.00 in
16:07 60.6 °F 55.4 °F 30.06 in SE 4.0 mph 7.0 mph 83 % 0.00 in
16:12 60.6 °F 55.8 °F 30.06 in ENE 3.0 mph 7.0 mph 84 % 0.00 in
16:17 60.6 °F 55.8 °F 30.06 in South 2.0 mph 5.0 mph 84 % 0.00 in
16:22 60.6 °F 55.8 °F 30.06 in SE 3.0 mph 5.0 mph 84 % 0.00 in
16:27 60.8 °F 55.9 °F 30.06 in ESE 2.0 mph 5.0 mph 84 % 0.00 in
16:32 61.0 °F 56.1 °F 30.05 in SE 2.0 mph 5.0 mph 84 % 0.00 in
16:37 60.6 °F 55.8 °F 30.05 in ESE 3.0 mph 7.0 mph 84 % 0.00 in
16:42 60.4 °F 55.9 °F 30.06 in East 2.0 mph 7.0 mph 85 % 0.00 in
16:47 60.3 °F 56.1 °F 30.06 in East 2.0 mph 7.0 mph 86 % 0.00 in
16:52 60.1 °F 56.1 °F 30.06 in SE 2.0 mph 8.0 mph 87 % 0.00 in
16:57 59.9 °F 55.9 °F 30.05 in SE 2.0 mph 8.0 mph 87 % 0.00 in
17:02 59.7 °F 56.1 °F 30.05 in ESE 1.0 mph 8.0 mph 88 % 0.00 in
17:07 59.7 °F 56.1 °F 30.05 in SSE 3.0 mph 6.0 mph 88 % 0.00 in
17:12 59.7 °F 56.1 °F 30.05 in ESE 3.0 mph 7.0 mph 88 % 0.00 in
17:17 59.7 °F 56.1 °F 30.05 in SE 5.0 mph 7.0 mph 88 % 0.00 in
17:22 59.7 °F 56.1 °F 30.05 in SE 2.0 mph 7.0 mph 88 % 0.00 in
17:27 59.7 °F 55.8 °F 30.05 in ESE 2.0 mph 7.0 mph 87 % 0.00 in
17:33 59.7 °F 55.8 °F 30.05 in SSE 1.0 mph 7.0 mph 87 % 0.00 in
17:38 59.7 °F 55.8 °F 30.05 in SSE 3.0 mph 5.0 mph 87 % 0.00 in
17:43 59.7 °F 55.8 °F 30.05 in East 2.0 mph 5.0 mph 87 % 0.00 in
17:48 59.7 °F 55.8 °F 30.05 in SE 3.0 mph 4.0 mph 87 % 0.00 in
17:53 59.7 °F 55.6 °F 30.05 in ESE 2.0 mph 4.0 mph 86 % 0.00 in
17:58 59.7 °F 55.6 °F 30.05 in SSE 1.0 mph 3.0 mph 86 % 0.00 in
18:03 59.7 °F 55.6 °F 30.05 in ESE 1.0 mph 5.0 mph 86 % 0.00 in
18:08 59.5 °F 55.4 °F 30.05 in ESE 1.0 mph 5.0 mph 86 % 0.00 in
18:13 59.5 °F 55.4 °F 30.05 in Calm   5.0 mph 86 % 0.00 in
18:18 59.5 °F 55.4 °F 30.05 in Calm   2.0 mph 86 % 0.00 in
18:23 59.5 °F 55.4 °F 30.05 in Calm   2.0 mph 86 % 0.00 in
18:28 59.5 °F 55.4 °F 30.04 in Calm   3.0 mph 86 % 0.00 in
18:33 59.4 °F 55.4 °F 30.04 in SE 2.0 mph 3.0 mph 87 % 0.00 in
18:38 59.4 °F 55.4 °F 30.04 in East 1.0 mph 5.0 mph 87 % 0.00 in
18:43 59.4 °F 55.8 °F 30.04 in SE 1.0 mph 6.0 mph 88 % 0.00 in
18:48 59.2 °F 55.9 °F 30.04 in ENE 4.0 mph 6.0 mph 89 % 0.00 in
18:53 58.8 °F 55.6 °F 30.04 in ESE 3.0 mph 6.0 mph 89 % 0.00 in
18:58 58.6 °F 55.8 °F 30.04 in SSE 2.0 mph 6.0 mph 90 % 0.00 in
19:03 58.5 °F 55.6 °F 30.04 in ENE 2.0 mph 6.0 mph 90 % 0.00 in
19:08 58.5 °F 55.8 °F 30.04 in SSE 1.0 mph 6.0 mph 91 % 0.00 in
19:13 58.3 °F 55.6 °F 30.04 in ESE 1.0 mph 6.0 mph 91 % 0.00 in
19:18 58.3 °F 55.6 °F 30.04 in ESE 5.0 mph 6.0 mph 91 % 0.00 in
19:23 58.3 °F 55.6 °F 30.04 in SSE 4.0 mph 6.0 mph 91 % 0.00 in
19:28 58.3 °F 55.9 °F 30.05 in East 3.0 mph 6.0 mph 92 % 0.00 in
19:33 58.3 °F 55.9 °F 30.05 in SE 2.0 mph 6.0 mph 92 % 0.00 in
19:38 58.3 °F 55.9 °F 30.05 in SE 2.0 mph 7.0 mph 92 % 0.00 in
19:43 58.3 °F 55.9 °F 30.05 in East 4.0 mph 7.0 mph 92 % 0.00 in
19:48 58.3 °F 55.9 °F 30.05 in SE 4.0 mph 7.0 mph 92 % 0.00 in
19:53 58.1 °F 55.8 °F 30.05 in Calm   5.0 mph 92 % 0.00 in
19:58 57.9 °F 55.6 °F 30.05 in SE 1.0 mph 5.0 mph 92 % 0.00 in
20:03 57.9 °F 55.6 °F 30.05 in SE 2.0 mph 4.0 mph 92 % 0.00 in
20:08 57.9 °F 55.9 °F 30.06 in SE 3.0 mph 3.0 mph 93 % 0.00 in
20:13 57.9 °F 55.9 °F 30.05 in Calm   5.0 mph 93 % 0.00 in
20:18 57.7 °F 55.8 °F 30.06 in East 2.0 mph 5.0 mph 93 % 0.00 in
20:23 57.7 °F 55.8 °F 30.06 in SE 1.0 mph 6.0 mph 93 % 0.00 in
20:28 57.7 °F 55.8 °F 30.06 in SE 2.0 mph 6.0 mph 93 % 0.00 in
20:33 57.7 °F 55.8 °F 30.05 in ESE 1.0 mph 6.0 mph 93 % 0.00 in
20:38 57.7 °F 55.9 °F 30.05 in Calm   4.0 mph 94 % 0.00 in
20:43 57.7 °F 55.9 °F 30.06 in SE 2.0 mph 4.0 mph 94 % 0.00 in
20:48 57.7 °F 55.9 °F 30.06 in Calm   4.0 mph 94 % 0.00 in
20:53 57.7 °F 55.9 °F 30.06 in SE 1.0 mph 4.0 mph 94 % 0.00 in
20:58 57.6 °F 55.8 °F 30.05 in SE 1.0 mph 4.0 mph 94 % 0.00 in
21:03 57.6 °F 55.8 °F 30.06 in ESE 1.0 mph 4.0 mph 94 % 0.00 in
21:08 57.6 °F 55.8 °F 30.05 in SE 4.0 mph 5.0 mph 94 % 0.00 in
21:13 57.6 °F 56.1 °F 30.05 in East 1.0 mph 6.0 mph 95 % 0.00 in
21:18 57.6 °F 56.1 °F 30.05 in Calm   6.0 mph 95 % 0.00 in
21:23 57.6 °F 56.1 °F 30.05 in East 1.0 mph 6.0 mph 95 % 0.00 in
21:28 57.6 °F 56.1 °F 30.05 in SE 3.0 mph 5.0 mph 95 % 0.00 in
21:33 57.6 °F 56.1 °F 30.05 in Calm   4.0 mph 95 % 0.00 in
21:38 57.6 °F 56.1 °F 30.05 in ESE 3.0 mph 5.0 mph 95 % 0.00 in
21:43 57.4 °F 55.9 °F 30.06 in ESE 1.0 mph 5.0 mph 95 % 0.00 in
21:48 57.4 °F 56.3 °F 30.06 in East 2.0 mph 5.0 mph 96 % 0.00 in
21:53 57.4 °F 56.3 °F 30.06 in Calm   5.0 mph 96 % 0.00 in
21:58 57.4 °F 56.3 °F 30.06 in Calm   5.0 mph 96 % 0.00 in
22:03 57.4 °F 56.3 °F 30.06 in East 1.0 mph 5.0 mph 96 % 0.00 in
22:08 57.2 °F 56.1 °F 30.06 in Calm   4.0 mph 96 % 0.00 in
22:13 57.2 °F 56.1 °F 30.07 in Calm   4.0 mph 96 % 0.00 in
22:18 57.2 °F 56.1 °F 30.07 in North 1.0 mph 4.0 mph 96 % 0.00 in
22:23 57.2 °F 56.1 °F 30.07 in Calm   2.0 mph 96 % 0.00 in
22:28 57.2 °F 56.1 °F 30.07 in Calm   2.0 mph 96 % 0.00 in
22:33 57.2 °F 56.1 °F 30.07 in East 1.0 mph 2.0 mph 96 % 0.00 in
22:38 57.2 °F 56.1 °F 30.07 in NE 1.0 mph 2.0 mph 96 % 0.00 in
22:43 57.4 °F 56.3 °F 30.08 in Calm   2.0 mph 96 % 0.00 in
22:48 57.2 °F 56.1 °F 30.08 in ESE 1.0 mph 2.0 mph 96 % 0.00 in
22:53 57.2 °F 56.1 °F 30.08 in Calm   1.0 mph 96 % 0.00 in
22:58 57.2 °F 56.1 °F 30.08 in Calm   2.0 mph 96 % 0.00 in
23:03 57.2 °F 56.1 °F 30.08 in Calm   2.0 mph 96 % 0.00 in
23:09 57.2 °F 56.1 °F 30.08 in Calm   2.0 mph 96 % 0.00 in
23:14 57.2 °F 56.1 °F 30.07 in Calm   1.0 mph 96 % 0.00 in
23:19 57.2 °F 56.1 °F 30.08 in Calm   2.0 mph 96 % 0.00 in
23:24 57.2 °F 56.3 °F 30.08 in Calm   2.0 mph 97 % 0.00 in
23:29 57.2 °F 56.3 °F 30.08 in SE 1.0 mph 2.0 mph 97 % 0.00 in
23:34 57.0 °F 56.1 °F 30.07 in East 1.0 mph 2.0 mph 97 % 0.00 in
23:39 57.0 °F 56.1 °F 30.07 in Calm   3.0 mph 97 % 0.00 in
23:44 57.0 °F 56.1 °F 30.07 in ESE 1.0 mph 3.0 mph 97 % 0.00 in
23:49 57.0 °F 56.1 °F 30.07 in ESE 1.0 mph 3.0 mph 97 % 0.00 in
23:54 57.0 °F 56.1 °F 30.07 in ESE 1.0 mph 2.0 mph 97 % 0.00 in
23:59 57.0 °F 56.1 °F 30.07 in ESE 2.0 mph 4.0 mph 97 % 0.00 in
Spring, Texas: Villages of Bridgestone
Compliments of Weather Underground - 2.75 mb

Script developed by  Jim McMurry - jmcmurry@mwt.net Adapted for the template by  Wim van der Kuil - Leuven-Template.eu

You find our weather info also at:

UK Metoffice

WeatherCloud

Weather Underground

Mid-South Weather Network

AWEKAS

Citizen Weather Observer Program (CWOP)

HAMweather, WeatherForYou, PWS Weather

Equipment we use:

Weather-station
Davis Vantage Vue

Weather-program
Meteohub

Weather-server
Debian 7.9 x86 (Guest)

Provider
DreamHost

Davis Vantage Vue

Meteohub

Debian 7.9 x86 (Guest)

DreamHost